sensor_id;sensor_type;location;lat;lon;timestamp;P1;durP1;ratioP1;P2;durP2;ratioP2
18001;SDS011;9126;48.160;17.130;2022-10-31T00:01:00;27.07;;;21.00;;
18001;SDS011;9126;48.160;17.130;2022-10-31T00:03:27;25.70;;;19.43;;
18001;SDS011;9126;48.160;17.130;2022-10-31T00:05:58;32.07;;;23.43;;
18001;SDS011;9126;48.160;17.130;2022-10-31T00:08:26;23.97;;;18.93;;
18001;SDS011;9126;48.160;17.130;2022-10-31T00:10:53;22.90;;;18.73;;
18001;SDS011;9126;48.160;17.130;2022-10-31T00:13:20;22.93;;;19.37;;
18001;SDS011;9126;48.160;17.130;2022-10-31T00:15:49;22.23;;;18.17;;
18001;SDS011;9126;48.160;17.130;2022-10-31T00:18:16;23.27;;;18.67;;
18001;SDS011;9126;48.160;17.130;2022-10-31T00:20:43;24.67;;;19.50;;
18001;SDS011;9126;48.160;17.130;2022-10-31T00:23:10;19.67;;;17.53;;
18001;SDS011;9126;48.160;17.130;2022-10-31T00:25:38;24.17;;;19.57;;
18001;SDS011;9126;48.160;17.130;2022-10-31T00:28:06;20.67;;;18.47;;
18001;SDS011;9126;48.160;17.130;2022-10-31T00:30:35;22.67;;;18.93;;
18001;SDS011;9126;48.160;17.130;2022-10-31T00:33:06;19.27;;;16.53;;
18001;SDS011;9126;48.160;17.130;2022-10-31T00:35:33;17.30;;;15.50;;
18001;SDS011;9126;48.160;17.130;2022-10-31T00:38:00;18.73;;;16.73;;
18001;SDS011;9126;48.160;17.130;2022-10-31T00:40:27;21.17;;;18.30;;
18001;SDS011;9126;48.160;17.130;2022-10-31T00:42:54;20.00;;;17.33;;
18001;SDS011;9126;48.160;17.130;2022-10-31T00:45:21;19.90;;;17.60;;
18001;SDS011;9126;48.160;17.130;2022-10-31T00:47:48;24.47;;;18.87;;
18001;SDS011;9126;48.160;17.130;2022-10-31T00:50:17;22.43;;;18.17;;
18001;SDS011;9126;48.160;17.130;2022-10-31T00:52:44;23.20;;;18.30;;
18001;SDS011;9126;48.160;17.130;2022-10-31T00:55:11;18.67;;;15.57;;
18001;SDS011;9126;48.160;17.130;2022-10-31T00:57:39;19.37;;;16.33;;
18001;SDS011;9126;48.160;17.130;2022-10-31T01:00:06;17.93;;;16.00;;
18001;SDS011;9126;48.160;17.130;2022-10-31T01:02:34;18.23;;;15.73;;
18001;SDS011;9126;48.160;17.130;2022-10-31T01:05:01;20.70;;;17.60;;
18001;SDS011;9126;48.160;17.130;2022-10-31T01:07:29;19.90;;;16.83;;
18001;SDS011;9126;48.160;17.130;2022-10-31T01:09:56;16.40;;;14.70;;
18001;SDS011;9126;48.160;17.130;2022-10-31T01:12:23;16.83;;;14.43;;
18001;SDS011;9126;48.160;17.130;2022-10-31T01:14:50;15.20;;;13.60;;
18001;SDS011;9126;48.160;17.130;2022-10-31T01:17:17;15.67;;;14.07;;
18001;SDS011;9126;48.160;17.130;2022-10-31T01:19:44;20.17;;;16.73;;
18001;SDS011;9126;48.160;17.130;2022-10-31T01:22:11;17.27;;;15.40;;
18001;SDS011;9126;48.160;17.130;2022-10-31T01:24:39;26.17;;;19.00;;
18001;SDS011;9126;48.160;17.130;2022-10-31T01:27:06;27.93;;;21.10;;
18001;SDS011;9126;48.160;17.130;2022-10-31T01:29:33;28.33;;;20.73;;
18001;SDS011;9126;48.160;17.130;2022-10-31T01:32:00;31.83;;;21.80;;
18001;SDS011;9126;48.160;17.130;2022-10-31T01:34:27;46.60;;;29.70;;
18001;SDS011;9126;48.160;17.130;2022-10-31T01:36:55;42.33;;;28.37;;
18001;SDS011;9126;48.160;17.130;2022-10-31T01:39:22;54.60;;;33.63;;
18001;SDS011;9126;48.160;17.130;2022-10-31T01:41:51;67.00;;;39.00;;
18001;SDS011;9126;48.160;17.130;2022-10-31T01:47:19;54.57;;;33.87;;
18001;SDS011;9126;48.160;17.130;2022-10-31T01:49:53;55.30;;;31.30;;
18001;SDS011;9126;48.160;17.130;2022-10-31T01:52:23;49.37;;;30.47;;
18001;SDS011;9126;48.160;17.130;2022-10-31T01:54:53;45.87;;;29.37;;
18001;SDS011;9126;48.160;17.130;2022-10-31T01:57:26;48.87;;;30.37;;
18001;SDS011;9126;48.160;17.130;2022-10-31T01:59:54;45.77;;;27.83;;
18001;SDS011;9126;48.160;17.130;2022-10-31T02:02:24;37.60;;;24.83;;
18001;SDS011;9126;48.160;17.130;2022-10-31T02:04:53;34.37;;;23.57;;
18001;SDS011;9126;48.160;17.130;2022-10-31T02:07:23;38.40;;;23.53;;
18001;SDS011;9126;48.160;17.130;2022-10-31T02:09:54;35.93;;;22.00;;
18001;SDS011;9126;48.160;17.130;2022-10-31T02:12:23;33.20;;;20.57;;
18001;SDS011;9126;48.160;17.130;2022-10-31T02:14:52;30.37;;;20.03;;
18001;SDS011;9126;48.160;17.130;2022-10-31T02:17:19;33.03;;;21.70;;
18001;SDS011;9126;48.160;17.130;2022-10-31T02:19:52;39.77;;;24.00;;
18001;SDS011;9126;48.160;17.130;2022-10-31T02:22:27;35.37;;;23.03;;
18001;SDS011;9126;48.160;17.130;2022-10-31T02:25:11;48.93;;;26.07;;
18001;SDS011;9126;48.160;17.130;2022-10-31T02:28:04;44.53;;;26.97;;
18001;SDS011;9126;48.160;17.130;2022-10-31T02:33:35;31.57;;;19.97;;
18001;SDS011;9126;48.160;17.130;2022-10-31T02:36:09;27.17;;;18.30;;
18001;SDS011;9126;48.160;17.130;2022-10-31T02:38:46;23.67;;;16.93;;
18001;SDS011;9126;48.160;17.130;2022-10-31T02:41:19;19.00;;;15.93;;
18001;SDS011;9126;48.160;17.130;2022-10-31T02:43:55;19.30;;;15.07;;
18001;SDS011;9126;48.160;17.130;2022-10-31T02:46:32;16.37;;;14.27;;
18001;SDS011;9126;48.160;17.130;2022-10-31T02:49:03;15.93;;;13.70;;
18001;SDS011;9126;48.160;17.130;2022-10-31T02:51:37;15.57;;;13.93;;
18001;SDS011;9126;48.160;17.130;2022-10-31T02:54:04;15.50;;;13.20;;
18001;SDS011;9126;48.160;17.130;2022-10-31T02:56:40;18.17;;;12.97;;
18001;SDS011;9126;48.160;17.130;2022-10-31T02:59:09;15.33;;;13.43;;
18001;SDS011;9126;48.160;17.130;2022-10-31T03:01:41;16.23;;;13.77;;
18001;SDS011;9126;48.160;17.130;2022-10-31T03:04:43;18.07;;;13.33;;
18001;SDS011;9126;48.160;17.130;2022-10-31T03:07:46;17.57;;;14.73;;
18001;SDS011;9126;48.160;17.130;2022-10-31T03:10:41;19.07;;;15.13;;
18001;SDS011;9126;48.160;17.130;2022-10-31T03:13:34;17.93;;;14.83;;
18001;SDS011;9126;48.160;17.130;2022-10-31T03:16:26;18.27;;;15.33;;
18001;SDS011;9126;48.160;17.130;2022-10-31T03:19:22;17.87;;;14.93;;
18001;SDS011;9126;48.160;17.130;2022-10-31T03:22:14;18.37;;;14.77;;
18001;SDS011;9126;48.160;17.130;2022-10-31T03:25:04;17.40;;;14.63;;
18001;SDS011;9126;48.160;17.130;2022-10-31T03:27:52;16.50;;;13.77;;
18001;SDS011;9126;48.160;17.130;2022-10-31T03:30:41;19.10;;;14.53;;
18001;SDS011;9126;48.160;17.130;2022-10-31T03:33:31;17.23;;;14.93;;
18001;SDS011;9126;48.160;17.130;2022-10-31T03:36:23;18.27;;;15.17;;
18001;SDS011;9126;48.160;17.130;2022-10-31T03:39:12;21.13;;;15.20;;
18001;SDS011;9126;48.160;17.130;2022-10-31T03:42:02;18.87;;;14.57;;
18001;SDS011;9126;48.160;17.130;2022-10-31T03:44:53;20.17;;;15.57;;
18001;SDS011;9126;48.160;17.130;2022-10-31T03:47:45;19.07;;;14.83;;
18001;SDS011;9126;48.160;17.130;2022-10-31T03:50:34;20.47;;;14.60;;
18001;SDS011;9126;48.160;17.130;2022-10-31T03:53:29;23.27;;;15.47;;
18001;SDS011;9126;48.160;17.130;2022-10-31T03:56:21;23.40;;;15.50;;
18001;SDS011;9126;48.160;17.130;2022-10-31T03:59:14;24.40;;;15.17;;
18001;SDS011;9126;48.160;17.130;2022-10-31T04:02:05;21.83;;;14.77;;
18001;SDS011;9126;48.160;17.130;2022-10-31T04:04:54;25.70;;;15.77;;
18001;SDS011;9126;48.160;17.130;2022-10-31T04:07:44;34.13;;;19.23;;
18001;SDS011;9126;48.160;17.130;2022-10-31T04:10:37;25.53;;;16.83;;
18001;SDS011;9126;48.160;17.130;2022-10-31T04:13:26;25.53;;;16.70;;
18001;SDS011;9126;48.160;17.130;2022-10-31T04:16:16;22.80;;;15.93;;
18001;SDS011;9126;48.160;17.130;2022-10-31T04:19:05;24.90;;;16.73;;
18001;SDS011;9126;48.160;17.130;2022-10-31T04:21:51;25.97;;;17.93;;
18001;SDS011;9126;48.160;17.130;2022-10-31T04:24:39;27.20;;;17.03;;
18001;SDS011;9126;48.160;17.130;2022-10-31T04:27:28;25.57;;;17.20;;
18001;SDS011;9126;48.160;17.130;2022-10-31T04:30:14;30.33;;;20.47;;
18001;SDS011;9126;48.160;17.130;2022-10-31T04:33:01;48.17;;;28.80;;
18001;SDS011;9126;48.160;17.130;2022-10-31T04:35:48;43.13;;;27.40;;
18001;SDS011;9126;48.160;17.130;2022-10-31T04:38:35;55.80;;;32.83;;
18001;SDS011;9126;48.160;17.130;2022-10-31T04:41:22;61.60;;;34.63;;
18001;SDS011;9126;48.160;17.130;2022-10-31T04:44:10;67.27;;;39.07;;
18001;SDS011;9126;48.160;17.130;2022-10-31T04:46:57;62.40;;;36.80;;
18001;SDS011;9126;48.160;17.130;2022-10-31T04:49:44;65.27;;;38.10;;
18001;SDS011;9126;48.160;17.130;2022-10-31T04:52:31;67.03;;;37.03;;
18001;SDS011;9126;48.160;17.130;2022-10-31T04:55:18;43.83;;;27.00;;
18001;SDS011;9126;48.160;17.130;2022-10-31T04:58:05;29.17;;;18.20;;
18001;SDS011;9126;48.160;17.130;2022-10-31T05:00:53;19.97;;;14.20;;
18001;SDS011;9126;48.160;17.130;2022-10-31T05:03:41;15.67;;;12.73;;
18001;SDS011;9126;48.160;17.130;2022-10-31T05:06:28;17.60;;;13.00;;
18001;SDS011;9126;48.160;17.130;2022-10-31T05:09:15;17.03;;;13.13;;
18001;SDS011;9126;48.160;17.130;2022-10-31T05:12:02;16.67;;;12.63;;
18001;SDS011;9126;48.160;17.130;2022-10-31T05:14:49;17.53;;;13.30;;
18001;SDS011;9126;48.160;17.130;2022-10-31T05:17:37;16.93;;;13.33;;
18001;SDS011;9126;48.160;17.130;2022-10-31T05:20:25;16.00;;;12.80;;
18001;SDS011;9126;48.160;17.130;2022-10-31T05:23:13;16.23;;;13.40;;
18001;SDS011;9126;48.160;17.130;2022-10-31T05:25:59;16.93;;;13.33;;
18001;SDS011;9126;48.160;17.130;2022-10-31T05:28:46;17.77;;;13.83;;
18001;SDS011;9126;48.160;17.130;2022-10-31T05:31:33;17.87;;;13.27;;
18001;SDS011;9126;48.160;17.130;2022-10-31T05:34:21;16.53;;;13.90;;
18001;SDS011;9126;48.160;17.130;2022-10-31T05:37:08;16.67;;;13.40;;
18001;SDS011;9126;48.160;17.130;2022-10-31T05:39:55;17.50;;;12.73;;
18001;SDS011;9126;48.160;17.130;2022-10-31T05:42:42;17.50;;;13.30;;
18001;SDS011;9126;48.160;17.130;2022-10-31T05:45:30;18.87;;;13.50;;
18001;SDS011;9126;48.160;17.130;2022-10-31T05:48:16;15.80;;;14.10;;
18001;SDS011;9126;48.160;17.130;2022-10-31T05:51:05;15.50;;;13.90;;
18001;SDS011;9126;48.160;17.130;2022-10-31T05:53:52;16.83;;;14.03;;
18001;SDS011;9126;48.160;17.130;2022-10-31T05:56:39;16.60;;;13.37;;
18001;SDS011;9126;48.160;17.130;2022-10-31T05:59:26;15.10;;;13.30;;
18001;SDS011;9126;48.160;17.130;2022-10-31T06:02:13;15.17;;;13.57;;
18001;SDS011;9126;48.160;17.130;2022-10-31T06:05:00;18.57;;;13.30;;
18001;SDS011;9126;48.160;17.130;2022-10-31T06:07:48;16.87;;;14.17;;
18001;SDS011;9126;48.160;17.130;2022-10-31T06:10:35;19.53;;;14.13;;
18001;SDS011;9126;48.160;17.130;2022-10-31T06:13:22;28.83;;;21.17;;
18001;SDS011;9126;48.160;17.130;2022-10-31T06:16:09;49.47;;;33.97;;
18001;SDS011;9126;48.160;17.130;2022-10-31T06:18:56;61.23;;;40.13;;
18001;SDS011;9126;48.160;17.130;2022-10-31T06:21:43;54.77;;;39.27;;
18001;SDS011;9126;48.160;17.130;2022-10-31T06:24:31;45.40;;;31.53;;
18001;SDS011;9126;48.160;17.130;2022-10-31T06:27:18;22.13;;;16.73;;
18001;SDS011;9126;48.160;17.130;2022-10-31T06:30:06;17.07;;;14.40;;
18001;SDS011;9126;48.160;17.130;2022-10-31T06:32:54;14.97;;;11.10;;
18001;SDS011;9126;48.160;17.130;2022-10-31T06:35:44;12.50;;;10.97;;
18001;SDS011;9126;48.160;17.130;2022-10-31T06:38:32;13.40;;;10.90;;
18001;SDS011;9126;48.160;17.130;2022-10-31T06:41:20;14.27;;;11.90;;
18001;SDS011;9126;48.160;17.130;2022-10-31T06:44:07;75.07;;;45.17;;
18001;SDS011;9126;48.160;17.130;2022-10-31T06:46:54;71.20;;;46.10;;
18001;SDS011;9126;48.160;17.130;2022-10-31T06:49:41;68.33;;;44.23;;
18001;SDS011;9126;48.160;17.130;2022-10-31T06:52:28;58.20;;;36.57;;
18001;SDS011;9126;48.160;17.130;2022-10-31T06:55:15;45.93;;;32.93;;
18001;SDS011;9126;48.160;17.130;2022-10-31T06:58:03;35.57;;;25.97;;
18001;SDS011;9126;48.160;17.130;2022-10-31T07:00:50;21.47;;;16.33;;
18001;SDS011;9126;48.160;17.130;2022-10-31T07:03:37;28.87;;;19.53;;
18001;SDS011;9126;48.160;17.130;2022-10-31T07:06:24;28.30;;;20.37;;
18001;SDS011;9126;48.160;17.130;2022-10-31T07:09:11;20.60;;;16.37;;
18001;SDS011;9126;48.160;17.130;2022-10-31T07:11:58;16.47;;;13.37;;
18001;SDS011;9126;48.160;17.130;2022-10-31T07:14:46;21.13;;;15.33;;
18001;SDS011;9126;48.160;17.130;2022-10-31T07:17:33;33.90;;;25.03;;
18001;SDS011;9126;48.160;17.130;2022-10-31T07:20:20;51.57;;;35.63;;
18001;SDS011;9126;48.160;17.130;2022-10-31T07:23:07;61.93;;;45.03;;
18001;SDS011;9126;48.160;17.130;2022-10-31T07:25:55;78.03;;;53.03;;
18001;SDS011;9126;48.160;17.130;2022-10-31T07:28:42;71.47;;;51.73;;
18001;SDS011;9126;48.160;17.130;2022-10-31T07:31:31;65.67;;;48.17;;
18001;SDS011;9126;48.160;17.130;2022-10-31T07:34:17;62.50;;;46.83;;
18001;SDS011;9126;48.160;17.130;2022-10-31T07:37:04;63.73;;;47.13;;
18001;SDS011;9126;48.160;17.130;2022-10-31T07:39:51;57.43;;;42.20;;
18001;SDS011;9126;48.160;17.130;2022-10-31T07:42:38;50.60;;;35.40;;
18001;SDS011;9126;48.160;17.130;2022-10-31T07:45:26;38.90;;;25.73;;
18001;SDS011;9126;48.160;17.130;2022-10-31T07:48:14;28.27;;;21.70;;
18001;SDS011;9126;48.160;17.130;2022-10-31T07:51:01;22.10;;;17.70;;
18001;SDS011;9126;48.160;17.130;2022-10-31T07:53:48;21.33;;;16.00;;
18001;SDS011;9126;48.160;17.130;2022-10-31T07:56:35;19.20;;;14.33;;
18001;SDS011;9126;48.160;17.130;2022-10-31T07:59:22;19.20;;;14.87;;
18001;SDS011;9126;48.160;17.130;2022-10-31T08:02:10;22.47;;;14.80;;
18001;SDS011;9126;48.160;17.130;2022-10-31T08:04:59;20.23;;;15.40;;
18001;SDS011;9126;48.160;17.130;2022-10-31T08:07:46;17.47;;;15.43;;
18001;SDS011;9126;48.160;17.130;2022-10-31T08:10:33;19.57;;;16.33;;
18001;SDS011;9126;48.160;17.130;2022-10-31T08:13:21;18.33;;;16.17;;
18001;SDS011;9126;48.160;17.130;2022-10-31T08:16:07;21.70;;;16.60;;
18001;SDS011;9126;48.160;17.130;2022-10-31T08:18:54;23.73;;;17.00;;
18001;SDS011;9126;48.160;17.130;2022-10-31T08:21:43;18.77;;;16.80;;
18001;SDS011;9126;48.160;17.130;2022-10-31T08:24:29;21.37;;;16.37;;
18001;SDS011;9126;48.160;17.130;2022-10-31T08:27:16;17.73;;;15.87;;
18001;SDS011;9126;48.160;17.130;2022-10-31T08:30:04;19.10;;;16.90;;
18001;SDS011;9126;48.160;17.130;2022-10-31T08:33:01;19.60;;;15.50;;
18001;SDS011;9126;48.160;17.130;2022-10-31T08:35:49;22.37;;;16.43;;
18001;SDS011;9126;48.160;17.130;2022-10-31T08:38:37;15.10;;;13.50;;
18001;SDS011;9126;48.160;17.130;2022-10-31T08:41:24;16.17;;;14.27;;
18001;SDS011;9126;48.160;17.130;2022-10-31T08:44:11;20.67;;;15.07;;
18001;SDS011;9126;48.160;17.130;2022-10-31T08:46:58;15.70;;;14.10;;
18001;SDS011;9126;48.160;17.130;2022-10-31T08:49:44;17.43;;;14.77;;
18001;SDS011;9126;48.160;17.130;2022-10-31T08:52:29;16.30;;;14.60;;
18001;SDS011;9126;48.160;17.130;2022-10-31T08:55:16;16.97;;;15.00;;
18001;SDS011;9126;48.160;17.130;2022-10-31T08:58:02;24.33;;;16.40;;
18001;SDS011;9126;48.160;17.130;2022-10-31T09:00:50;21.90;;;16.33;;
18001;SDS011;9126;48.160;17.130;2022-10-31T09:03:36;18.57;;;16.63;;
18001;SDS011;9126;48.160;17.130;2022-10-31T09:06:22;24.70;;;16.90;;
18001;SDS011;9126;48.160;17.130;2022-10-31T09:09:08;20.37;;;18.33;;
18001;SDS011;9126;48.160;17.130;2022-10-31T09:11:55;22.93;;;18.97;;
18001;SDS011;9126;48.160;17.130;2022-10-31T09:14:40;24.63;;;20.07;;
18001;SDS011;9126;48.160;17.130;2022-10-31T09:17:26;20.90;;;18.50;;
18001;SDS011;9126;48.160;17.130;2022-10-31T09:20:12;20.73;;;18.30;;
18001;SDS011;9126;48.160;17.130;2022-10-31T09:22:58;19.70;;;17.60;;
18001;SDS011;9126;48.160;17.130;2022-10-31T09:25:49;19.33;;;17.53;;
18001;SDS011;9126;48.160;17.130;2022-10-31T09:28:37;22.37;;;18.13;;
18001;SDS011;9126;48.160;17.130;2022-10-31T09:31:23;20.60;;;18.50;;
18001;SDS011;9126;48.160;17.130;2022-10-31T09:34:09;22.07;;;18.67;;
18001;SDS011;9126;48.160;17.130;2022-10-31T09:36:57;19.90;;;17.90;;
18001;SDS011;9126;48.160;17.130;2022-10-31T09:39:42;20.00;;;17.73;;
18001;SDS011;9126;48.160;17.130;2022-10-31T09:42:35;19.60;;;17.60;;
18001;SDS011;9126;48.160;17.130;2022-10-31T09:45:35;19.57;;;17.47;;
18001;SDS011;9126;48.160;17.130;2022-10-31T09:48:46;20.27;;;18.27;;
18001;SDS011;9126;48.160;17.130;2022-10-31T09:51:44;20.67;;;18.57;;
18001;SDS011;9126;48.160;17.130;2022-10-31T09:54:37;21.13;;;18.93;;
18001;SDS011;9126;48.160;17.130;2022-10-31T09:57:27;21.43;;;19.33;;
18001;SDS011;9126;48.160;17.130;2022-10-31T10:00:17;22.80;;;19.80;;
18001;SDS011;9126;48.160;17.130;2022-10-31T10:03:10;21.60;;;19.33;;
18001;SDS011;9126;48.160;17.130;2022-10-31T10:06:06;22.87;;;20.67;;
18001;SDS011;9126;48.160;17.130;2022-10-31T10:08:57;21.70;;;19.40;;
18001;SDS011;9126;48.160;17.130;2022-10-31T10:11:47;22.97;;;20.57;;
18001;SDS011;9126;48.160;17.130;2022-10-31T10:14:43;22.67;;;20.40;;
18001;SDS011;9126;48.160;17.130;2022-10-31T10:17:46;23.10;;;20.70;;
18001;SDS011;9126;48.160;17.130;2022-10-31T10:20:49;25.93;;;23.20;;
18001;SDS011;9126;48.160;17.130;2022-10-31T10:23:51;30.30;;;26.47;;
18001;SDS011;9126;48.160;17.130;2022-10-31T10:27:00;27.07;;;24.33;;
18001;SDS011;9126;48.160;17.130;2022-10-31T10:29:57;27.63;;;24.80;;
18001;SDS011;9126;48.160;17.130;2022-10-31T10:32:47;27.73;;;24.50;;
18001;SDS011;9126;48.160;17.130;2022-10-31T10:35:38;27.13;;;24.43;;
18001;SDS011;9126;48.160;17.130;2022-10-31T10:38:28;28.13;;;25.23;;
18001;SDS011;9126;48.160;17.130;2022-10-31T10:41:20;25.03;;;22.50;;
18001;SDS011;9126;48.160;17.130;2022-10-31T10:44:08;27.47;;;24.77;;
18001;SDS011;9126;48.160;17.130;2022-10-31T10:46:55;27.50;;;24.80;;
18001;SDS011;9126;48.160;17.130;2022-10-31T10:50:02;25.30;;;22.67;;
18001;SDS011;9126;48.160;17.130;2022-10-31T10:52:53;24.23;;;21.73;;
18001;SDS011;9126;48.160;17.130;2022-10-31T10:55:50;23.37;;;21.10;;
18001;SDS011;9126;48.160;17.130;2022-10-31T10:58:41;26.67;;;23.97;;
18001;SDS011;9126;48.160;17.130;2022-10-31T11:01:30;28.43;;;25.57;;
18001;SDS011;9126;48.160;17.130;2022-10-31T11:04:29;27.57;;;24.77;;
18001;SDS011;9126;48.160;17.130;2022-10-31T11:07:16;25.83;;;23.33;;
18001;SDS011;9126;48.160;17.130;2022-10-31T11:10:03;26.30;;;23.90;;
18001;SDS011;9126;48.160;17.130;2022-10-31T11:13:00;25.70;;;23.20;;
18001;SDS011;9126;48.160;17.130;2022-10-31T11:15:51;23.63;;;21.23;;
18001;SDS011;9126;48.160;17.130;2022-10-31T11:18:45;22.03;;;19.93;;
18001;SDS011;9126;48.160;17.130;2022-10-31T11:21:31;22.50;;;20.23;;
18001;SDS011;9126;48.160;17.130;2022-10-31T11:24:19;22.67;;;18.83;;
18001;SDS011;9126;48.160;17.130;2022-10-31T11:27:11;21.23;;;19.10;;
18001;SDS011;9126;48.160;17.130;2022-10-31T11:30:09;21.57;;;18.53;;
18001;SDS011;9126;48.160;17.130;2022-10-31T11:32:57;25.00;;;22.70;;
18001;SDS011;9126;48.160;17.130;2022-10-31T11:35:43;23.43;;;20.43;;
18001;SDS011;9126;48.160;17.130;2022-10-31T11:38:32;26.00;;;20.33;;
18001;SDS011;9126;48.160;17.130;2022-10-31T11:41:25;28.53;;;25.93;;
18001;SDS011;9126;48.160;17.130;2022-10-31T11:44:14;30.30;;;27.37;;
18001;SDS011;9126;48.160;17.130;2022-10-31T11:47:04;25.00;;;20.57;;
18001;SDS011;9126;48.160;17.130;2022-10-31T11:49:50;26.27;;;23.77;;
18001;SDS011;9126;48.160;17.130;2022-10-31T11:52:36;25.70;;;22.77;;
18001;SDS011;9126;48.160;17.130;2022-10-31T11:55:31;27.50;;;24.80;;
18001;SDS011;9126;48.160;17.130;2022-10-31T11:58:22;27.03;;;23.27;;
18001;SDS011;9126;48.160;17.130;2022-10-31T12:01:20;28.87;;;25.97;;
18001;SDS011;9126;48.160;17.130;2022-10-31T12:04:11;31.23;;;28.13;;
18001;SDS011;9126;48.160;17.130;2022-10-31T12:06:58;29.77;;;24.70;;
18001;SDS011;9126;48.160;17.130;2022-10-31T12:09:44;25.33;;;22.77;;
18001;SDS011;9126;48.160;17.130;2022-10-31T12:12:33;24.03;;;21.73;;
18001;SDS011;9126;48.160;17.130;2022-10-31T12:15:28;29.10;;;22.40;;
18001;SDS011;9126;48.160;17.130;2022-10-31T12:18:25;36.00;;;29.00;;
18001;SDS011;9126;48.160;17.130;2022-10-31T12:21:27;36.87;;;29.97;;
18001;SDS011;9126;48.160;17.130;2022-10-31T12:24:25;33.10;;;29.57;;
18001;SDS011;9126;48.160;17.130;2022-10-31T12:27:27;32.87;;;29.73;;
18001;SDS011;9126;48.160;17.130;2022-10-31T12:30:26;32.70;;;29.47;;
18001;SDS011;9126;48.160;17.130;2022-10-31T12:33:21;30.83;;;27.63;;
18001;SDS011;9126;48.160;17.130;2022-10-31T12:36:32;28.70;;;25.80;;
18001;SDS011;9126;48.160;17.130;2022-10-31T12:39:30;29.27;;;26.37;;
18001;SDS011;9126;48.160;17.130;2022-10-31T12:42:24;28.43;;;25.73;;
18001;SDS011;9126;48.160;17.130;2022-10-31T12:45:30;26.57;;;24.20;;
18001;SDS011;9126;48.160;17.130;2022-10-31T12:48:34;27.90;;;25.60;;
18001;SDS011;9126;48.160;17.130;2022-10-31T12:51:34;26.93;;;24.33;;
18001;SDS011;9126;48.160;17.130;2022-10-31T12:54:31;25.43;;;23.23;;
18001;SDS011;9126;48.160;17.130;2022-10-31T12:57:30;23.83;;;21.83;;
18001;SDS011;9126;48.160;17.130;2022-10-31T13:00:19;23.57;;;21.47;;
18001;SDS011;9126;48.160;17.130;2022-10-31T13:03:09;24.77;;;22.57;;
18001;SDS011;9126;48.160;17.130;2022-10-31T13:06:05;25.97;;;23.63;;
18001;SDS011;9126;48.160;17.130;2022-10-31T13:08:56;29.20;;;26.10;;
18001;SDS011;9126;48.160;17.130;2022-10-31T13:11:45;30.63;;;27.20;;
18001;SDS011;9126;48.160;17.130;2022-10-31T13:14:33;25.97;;;23.37;;
18001;SDS011;9126;48.160;17.130;2022-10-31T13:17:26;25.10;;;22.67;;
18001;SDS011;9126;48.160;17.130;2022-10-31T13:20:20;22.47;;;20.53;;
18001;SDS011;9126;48.160;17.130;2022-10-31T13:23:10;22.07;;;19.90;;
18001;SDS011;9126;48.160;17.130;2022-10-31T13:26:06;22.17;;;19.97;;
18001;SDS011;9126;48.160;17.130;2022-10-31T13:29:00;24.83;;;22.40;;
18001;SDS011;9126;48.160;17.130;2022-10-31T13:31:50;23.10;;;21.00;;
18001;SDS011;9126;48.160;17.130;2022-10-31T13:34:37;26.00;;;23.50;;
18001;SDS011;9126;48.160;17.130;2022-10-31T13:37:27;36.23;;;32.37;;
18001;SDS011;9126;48.160;17.130;2022-10-31T13:43:23;31.63;;;28.23;;
18001;SDS011;9126;48.160;17.130;2022-10-31T13:46:24;20.40;;;18.40;;
18001;SDS011;9126;48.160;17.130;2022-10-31T13:52:25;18.63;;;16.13;;
18001;SDS011;9126;48.160;17.130;2022-10-31T13:58:20;19.87;;;16.80;;
18001;SDS011;9126;48.160;17.130;2022-10-31T14:01:14;25.13;;;21.90;;
18001;SDS011;9126;48.160;17.130;2022-10-31T14:04:04;32.57;;;25.23;;
18001;SDS011;9126;48.160;17.130;2022-10-31T14:06:55;32.40;;;27.20;;
18001;SDS011;9126;48.160;17.130;2022-10-31T14:09:49;26.37;;;23.53;;
18001;SDS011;9126;48.160;17.130;2022-10-31T14:12:40;25.30;;;20.73;;
18001;SDS011;9126;48.160;17.130;2022-10-31T14:15:29;18.20;;;16.20;;
18001;SDS011;9126;48.160;17.130;2022-10-31T14:18:19;14.37;;;12.97;;
18001;SDS011;9126;48.160;17.130;2022-10-31T14:21:13;15.13;;;13.63;;
18001;SDS011;9126;48.160;17.130;2022-10-31T14:24:01;16.03;;;11.33;;
18001;SDS011;9126;48.160;17.130;2022-10-31T14:26:58;13.33;;;11.23;;
18001;SDS011;9126;48.160;17.130;2022-10-31T14:29:45;12.10;;;10.80;;
18001;SDS011;9126;48.160;17.130;2022-10-31T14:32:32;13.57;;;11.40;;
18001;SDS011;9126;48.160;17.130;2022-10-31T14:35:23;18.50;;;14.33;;
18001;SDS011;9126;48.160;17.130;2022-10-31T14:38:15;18.03;;;16.17;;
18001;SDS011;9126;48.160;17.130;2022-10-31T14:41:25;16.80;;;14.80;;
18001;SDS011;9126;48.160;17.130;2022-10-31T14:48:00;29.70;;;25.13;;
18001;SDS011;9126;48.160;17.130;2022-10-31T14:50:57;17.63;;;15.73;;
18001;SDS011;9126;48.160;17.130;2022-10-31T14:53:45;20.33;;;17.73;;
18001;SDS011;9126;48.160;17.130;2022-10-31T14:56:33;24.53;;;18.53;;
18001;SDS011;9126;48.160;17.130;2022-10-31T14:59:21;23.50;;;21.00;;
18001;SDS011;9126;48.160;17.130;2022-10-31T15:02:12;24.90;;;21.00;;
18001;SDS011;9126;48.160;17.130;2022-10-31T15:05:03;18.97;;;16.47;;
18001;SDS011;9126;48.160;17.130;2022-10-31T15:07:52;13.87;;;12.57;;
18001;SDS011;9126;48.160;17.130;2022-10-31T15:10:39;29.50;;;15.53;;
18001;SDS011;9126;48.160;17.130;2022-10-31T15:13:30;16.03;;;13.73;;
18001;SDS011;9126;48.160;17.130;2022-10-31T15:16:17;16.40;;;12.77;;
18001;SDS011;9126;48.160;17.130;2022-10-31T15:19:06;14.47;;;12.50;;
18001;SDS011;9126;48.160;17.130;2022-10-31T15:21:57;14.87;;;12.43;;
18001;SDS011;9126;48.160;17.130;2022-10-31T15:24:43;13.33;;;11.83;;
18001;SDS011;9126;48.160;17.130;2022-10-31T15:27:28;15.37;;;12.80;;
18001;SDS011;9126;48.160;17.130;2022-10-31T15:30:16;14.93;;;13.33;;
18001;SDS011;9126;48.160;17.130;2022-10-31T15:33:14;16.77;;;15.07;;
18001;SDS011;9126;48.160;17.130;2022-10-31T15:36:04;13.47;;;11.93;;
18001;SDS011;9126;48.160;17.130;2022-10-31T15:38:52;12.60;;;10.43;;
18001;SDS011;9126;48.160;17.130;2022-10-31T15:41:42;18.83;;;11.77;;
18001;SDS011;9126;48.160;17.130;2022-10-31T15:44:33;14.10;;;10.60;;
18001;SDS011;9126;48.160;17.130;2022-10-31T15:47:21;14.43;;;11.10;;
18001;SDS011;9126;48.160;17.130;2022-10-31T15:50:17;13.27;;;11.40;;
18001;SDS011;9126;48.160;17.130;2022-10-31T15:53:15;11.57;;;9.90;;
18001;SDS011;9126;48.160;17.130;2022-10-31T15:56:13;12.07;;;10.70;;
18001;SDS011;9126;48.160;17.130;2022-10-31T15:58:48;13.20;;;11.90;;
18001;SDS011;9126;48.160;17.130;2022-10-31T16:01:20;12.70;;;11.40;;
18001;SDS011;9126;48.160;17.130;2022-10-31T16:04:05;22.30;;;12.90;;
18001;SDS011;9126;48.160;17.130;2022-10-31T16:07:01;14.80;;;12.57;;
18001;SDS011;9126;48.160;17.130;2022-10-31T16:09:48;14.27;;;12.40;;
18001;SDS011;9126;48.160;17.130;2022-10-31T16:12:17;16.27;;;14.00;;
18001;SDS011;9126;48.160;17.130;2022-10-31T16:14:44;16.07;;;14.37;;
18001;SDS011;9126;48.160;17.130;2022-10-31T16:17:12;16.10;;;14.43;;
18001;SDS011;9126;48.160;17.130;2022-10-31T16:19:48;16.33;;;14.70;;
18001;SDS011;9126;48.160;17.130;2022-10-31T16:22:23;17.10;;;15.37;;
18001;SDS011;9126;48.160;17.130;2022-10-31T16:24:53;21.53;;;15.00;;
18001;SDS011;9126;48.160;17.130;2022-10-31T16:27:25;18.37;;;15.87;;